Time;durP1;ratioP1;P1;durP2;ratioP2;P2;SDS_P1;SDS_P2;PMS_P1;PMS_P2;Temp;Humidity;BMP_temperature;BMP_pressure;BME280_temperature;BME280_humidity;BME280_pressure;Samples;Min_cycle;Max_cycle;Signal;HPM_P1;HPM_P2
2022/09/26 00:01:17;;;;;;;8.30;4.97;;;;;;;9.21;100.00;100711.53;5032966;28;20067;-74
2022/09/26 00:03:46;;;;;;;5.90;4.60;;;;;;;9.31;100.00;100728.22;5032994;28;20132;-72
2022/09/26 00:06:11;;;;;;;6.15;5.32;;;;;;;9.26;100.00;100719.91;5032609;28;20047;-73
2022/09/26 00:08:38;;;;;;;7.67;5.37;;;;;;;9.11;100.00;100694.84;5031633;28;20408;-73
2022/09/26 00:11:06;;;;;;;9.27;4.97;;;;;;;9.27;100.00;100724.22;5032786;28;20238;-74
2022/09/26 00:13:34;;;;;;;8.33;4.83;;;;;;;9.32;100.00;100733.38;5032964;28;20041;-73
2022/09/26 00:16:00;;;;;;;6.00;4.97;;;;;;;9.37;100.00;100735.56;5032407;28;20087;-74
2022/09/26 00:18:25;;;;;;;5.73;5.20;;;;;;;9.38;100.00;100726.63;5032380;28;20041;-73
2022/09/26 00:20:51;;;;;;;8.60;5.73;;;;;;;9.25;100.00;100712.88;5032293;28;20037;-74
2022/09/26 00:23:17;;;;;;;9.10;5.40;;;;;;;9.32;100.00;100725.41;5032235;28;20047;-73
2022/09/26 00:25:47;;;;;;;8.07;5.53;;;;;;;9.24;100.00;100728.00;5032577;28;20037;-74
2022/09/26 00:28:14;;;;;;;9.43;5.50;;;;;;;9.24;100.00;100740.44;5032466;28;20374;-74
2022/09/26 00:30:40;;;;;;;9.67;5.80;;;;;;;9.14;100.00;100731.75;5032312;28;20033;-75
2022/09/26 00:33:05;;;;;;;8.27;4.83;;;;;;;9.02;100.00;100733.81;5032250;28;20041;-75
2022/09/26 00:35:31;;;;;;;9.80;5.77;;;;;;;8.94;100.00;100736.38;5032244;28;20037;-74
2022/09/26 00:37:56;;;;;;;7.43;5.50;;;;;;;8.88;100.00;100732.50;5032200;28;20492;-73
2022/09/26 00:40:25;;;;;;;7.17;5.00;;;;;;;8.82;100.00;100738.44;5032277;28;20040;-73
2022/09/26 00:42:52;;;;;;;9.67;5.80;;;;;;;8.76;100.00;100733.75;5032066;28;20179;-73
2022/09/26 00:45:18;;;;;;;9.40;6.20;;;;;;;8.71;100.00;100735.19;5032157;28;20059;-73
2022/09/26 00:47:51;;;;;;;11.43;6.37;;;;;;;8.74;100.00;100735.72;5031928;28;20136;-73
2022/09/26 00:50:34;;;;;;;10.67;6.30;;;;;;;8.77;100.00;100730.09;5032292;28;20041;-73
2022/09/26 00:53:13;;;;;;;8.20;6.20;;;;;;;8.82;100.00;100722.50;5032009;28;20041;-73
2022/09/26 00:55:51;;;;;;;11.00;6.53;;;;;;;8.89;100.00;100726.22;5032107;28;20095;-74
2022/09/26 00:58:39;;;;;;;9.00;6.32;;;;;;;8.95;100.00;100724.75;5031824;28;20131;-74
2022/09/26 01:01:06;;;;;;;7.13;6.20;;;;;;;8.94;100.00;100726.59;5031973;28;20120;-75
2022/09/26 01:03:33;;;;;;;9.17;5.90;;;;;;;8.93;100.00;100724.91;5031846;28;20179;-72
2022/09/26 01:06:00;;;;;;;12.77;5.87;;;;;;;8.68;100.00;100689.38;5031477;28;20033;-73
2022/09/26 01:08:31;;;;;;;8.50;6.37;;;;;;;8.95;100.00;100733.56;5031610;28;20026;-74
2022/09/26 01:10:58;;;;;;;8.33;5.53;;;;;;;8.93;100.00;100732.88;5031873;28;20036;-72
2022/09/26 01:13:25;;;;;;;9.53;6.77;;;;;;;8.96;100.00;100729.09;5033019;28;20037;-73
2022/09/26 01:15:51;;;;;;;13.73;7.27;;;;;;;9.02;100.00;100744.44;5032570;28;20037;-73
2022/09/26 01:18:17;;;;;;;13.30;7.87;;;;;;;8.97;100.00;100728.97;5031997;28;20455;-74
2022/09/26 01:21:09;;;;;;;10.67;8.07;;;;;;;9.08;100.00;100746.47;5032301;28;20049;-74
2022/09/26 01:23:49;;;;;;;10.77;7.40;;;;;;;9.15;100.00;100744.88;5024032;28;20080;-72
2022/09/26 01:26:52;;;;;;;11.03;7.13;;;;;;;9.18;100.00;100743.72;5033003;28;20449;-73
2022/09/26 01:29:20;;;;;;;10.73;6.27;;;;;;;9.14;100.00;100740.53;5031609;28;20128;-74
2022/09/26 01:35:15;;;;;;;7.83;5.87;;;;;;;9.13;100.00;100746.00;5032075;28;20037;-73
2022/09/26 01:37:48;;;;;;;12.43;6.23;;;;;;;9.09;100.00;100747.31;5031517;28;20048;-74
2022/09/26 01:40:28;;;;;;;15.43;7.43;;;;;;;9.04;100.00;100744.28;5013649;28;20416;-73
2022/09/26 01:43:04;;;;;;;10.53;6.83;;;;;;;9.04;100.00;100750.44;5031501;28;20048;-73
2022/09/26 01:45:50;;;;;;;11.63;6.23;;;;;;;9.11;100.00;100754.13;5032180;28;20520;-74
2022/09/26 01:48:47;;;;;;;7.73;6.20;;;;;;;9.19;100.00;100750.72;5014542;28;20069;-73
2022/09/26 01:51:15;;;;;;;8.70;6.37;;;;;;;9.24;100.00;100753.72;5030126;28;20041;-73
2022/09/26 01:53:47;;;;;;;10.63;6.15;;;;;;;9.26;100.00;100741.16;5031707;28;20037;-74
2022/09/26 01:56:18;;;;;;;9.87;6.50;;;;;;;9.28;100.00;100742.66;5031393;28;20039;-74
2022/09/26 01:58:50;;;;;;;11.60;6.53;;;;;;;9.35;100.00;100750.84;5013270;28;20064;-74
2022/09/26 02:01:26;;;;;;;8.23;6.50;;;;;;;9.31;100.00;100744.19;5031533;28;20048;-74
2022/09/26 02:04:00;;;;;;;7.30;5.77;;;;;;;9.18;100.00;100744.56;5031545;28;20136;-73
2022/09/26 02:06:30;;;;;;;12.80;7.53;;;;;;;9.09;100.00;100745.50;5031611;28;20615;-74
2022/09/26 02:09:10;;;;;;;12.90;7.37;;;;;;;9.00;100.00;100754.38;5031357;28;20441;-73
2022/09/26 02:11:40;;;;;;;17.70;8.67;;;;;;;8.93;100.00;100746.16;5032166;28;20384;-74
2022/09/26 02:14:13;;;;;;;16.60;9.10;;;;;;;8.98;100.00;100756.34;5033908;28;20096;-74
2022/09/26 02:16:42;;;;;;;15.50;8.53;;;;;;;9.02;100.00;100759.53;5037881;28;20073;-74
2022/09/26 02:19:14;;;;;;;17.40;8.07;;;;;;;9.04;100.00;100747.78;5037295;28;20045;-75
2022/09/26 02:21:41;;;;;;;9.27;7.73;;;;;;;9.12;100.00;100760.28;5039210;28;20037;-73
2022/09/26 02:24:06;;;;;;;10.07;7.67;;;;;;;9.09;100.00;100734.03;5045738;28;20033;-74
2022/09/26 02:26:32;;;;;;;12.43;8.10;;;;;;;9.11;100.00;100745.34;5043859;28;20048;-74
2022/09/26 02:28:59;;;;;;;9.30;7.00;;;;;;;9.13;100.00;100732.72;5045240;28;20059;-74
2022/09/26 02:31:29;;;;;;;10.67;7.73;;;;;;;9.14;100.00;100737.06;5045195;28;20033;-73
2022/09/26 02:33:55;;;;;;;13.17;7.77;;;;;;;9.16;100.00;100749.19;5042021;28;20393;-74
2022/09/26 02:36:21;;;;;;;12.73;8.93;;;;;;;9.15;100.00;100744.03;5036320;28;20033;-74
2022/09/26 02:38:47;;;;;;;11.37;7.57;;;;;;;9.08;100.00;100743.00;5037953;28;20524;-73
2022/09/26 02:41:27;;;;;;;13.27;8.13;;;;;;;8.94;100.00;100721.28;5036671;28;20037;-73
2022/09/26 02:44:14;;;;;;;13.97;8.40;;;;;;;8.90;100.00;100733.19;5034285;28;20405;-76
2022/09/26 02:47:07;;;;;;;12.57;8.20;;;;;;;8.79;100.00;100732.59;5034418;28;20033;-74
2022/09/26 02:50:03;;;;;;;11.73;8.03;;;;;;;8.73;100.00;100742.00;5016644;28;20041;-74
2022/09/26 02:52:34;;;;;;;12.57;9.37;;;;;;;8.71;100.00;100745.81;5034201;28;20190;-74
2022/09/26 02:55:20;;;;;;;10.93;8.30;;;;;;;8.78;100.00;100734.44;5033993;28;20041;-74
2022/09/26 02:58:02;;;;;;;10.97;8.40;;;;;;;8.86;100.00;100741.63;5034180;28;20042;-73
2022/09/26 03:00:38;;;;;;;14.10;8.80;;;;;;;8.90;100.00;100740.31;5034082;28;20072;-74
2022/09/26 03:03:21;;;;;;;13.47;10.17;;;;;;;8.98;100.00;100735.09;5034023;28;20053;-75
2022/09/26 03:05:48;;;;;;;16.30;9.60;;;;;;;8.96;100.00;100740.56;5034026;28;20041;-76
2022/09/26 03:08:37;;;;;;;13.77;9.10;;;;;;;8.97;100.00;100742.25;5033953;28;20037;-76
2022/09/26 03:11:05;;;;;;;18.60;9.03;;;;;;;9.03;100.00;100739.97;5033846;28;20053;-75
2022/09/26 03:13:37;;;;;;;18.50;11.98;;;;;;;9.11;100.00;100743.50;5033687;28;20037;-73
2022/09/26 03:16:04;;;;;;;18.43;10.63;;;;;;;9.10;100.00;100741.00;5033913;28;20044;-75
2022/09/26 03:18:40;;;;;;;16.90;11.80;;;;;;;9.11;100.00;100729.41;5033502;28;20507;-75
2022/09/26 03:21:06;;;;;;;14.23;10.40;;;;;;;9.10;100.00;100738.34;5033627;28;20037;-72
2022/09/26 03:23:32;;;;;;;16.53;12.87;;;;;;;9.09;100.00;100734.88;5033521;28;20542;-74
2022/09/26 03:26:01;;;;;;;12.97;10.87;;;;;;;9.17;100.00;100731.44;5033443;28;20033;-75
2022/09/26 03:28:27;;;;;;;14.03;10.80;;;;;;;9.21;100.00;100732.78;5033165;28;20041;-73
2022/09/26 03:30:53;;;;;;;14.77;11.27;;;;;;;9.26;100.00;100736.69;5033608;28;20056;-75
2022/09/26 03:33:18;;;;;;;18.03;11.53;;;;;;;9.27;100.00;100732.19;5033714;28;20540;-75
2022/09/26 03:35:44;;;;;;;18.27;12.13;;;;;;;9.27;100.00;100732.19;5033572;28;20041;-74
2022/09/26 03:38:10;;;;;;;19.80;13.93;;;;;;;9.26;100.00;100738.50;5033281;28;20045;-73
2022/09/26 03:40:36;;;;;;;15.53;11.93;;;;;;;9.20;100.00;100733.78;5033429;28;20045;-73
2022/09/26 03:43:01;;;;;;;20.40;12.40;;;;;;;9.19;100.00;100742.72;5033121;28;20087;-75
2022/09/26 03:45:27;;;;;;;18.90;12.77;;;;;;;9.15;100.00;100744.03;5033055;28;20124;-74
2022/09/26 03:47:56;;;;;;;20.17;12.83;;;;;;;9.08;100.00;100732.34;5033309;28;20077;-75
2022/09/26 03:50:22;;;;;;;18.07;12.00;;;;;;;8.99;100.00;100718.19;5033479;28;20516;-73
2022/09/26 03:52:48;;;;;;;17.73;11.60;;;;;;;9.20;100.00;100744.41;5033299;28;20034;-73
2022/09/26 03:55:13;;;;;;;18.80;12.90;;;;;;;9.29;100.00;100740.84;5032951;28;20053;-73
2022/09/26 03:57:39;;;;;;;16.60;12.37;;;;;;;9.32;100.00;100748.50;5032850;28;20150;-74
2022/09/26 04:00:06;;;;;;;19.57;11.57;;;;;;;9.32;100.00;100737.88;5032992;28;20057;-75
2022/09/26 04:02:32;;;;;;;17.43;13.33;;;;;;;9.41;100.00;100742.25;5032951;28;20408;-74
2022/09/26 04:05:24;;;;;;;18.70;12.53;;;;;;;9.40;100.00;100743.25;5033155;28;20099;-74
2022/09/26 04:07:49;;;;;;;20.50;14.70;;;;;;;9.44;100.00;100744.59;5032946;28;20367;-76
2022/09/26 04:10:15;;;;;;;18.17;12.50;;;;;;;9.45;100.00;100754.22;5032723;28;20040;-74
2022/09/26 04:12:40;;;;;;;20.10;13.73;;;;;;;9.42;100.00;100746.56;5032697;28;20452;-72
2022/09/26 04:15:06;;;;;;;18.07;12.67;;;;;;;9.47;100.00;100746.09;5032774;28;20542;-74
2022/09/26 04:17:32;;;;;;;19.17;13.03;;;;;;;9.53;100.00;100753.44;5031502;28;20051;-73
2022/09/26 04:19:58;;;;;;;17.00;12.97;;;;;;;9.55;100.00;100754.16;5031472;28;20439;-75
2022/09/26 04:22:24;;;;;;;18.53;14.90;;;;;;;9.52;100.00;100754.44;5032553;28;20390;-73
2022/09/26 04:24:50;;;;;;;19.70;13.33;;;;;;;9.50;100.00;100749.28;5033970;28;20040;-75
2022/09/26 04:27:17;;;;;;;20.10;13.87;;;;;;;9.61;100.00;100772.97;5017392;28;20041;-75
2022/09/26 04:29:43;;;;;;;20.17;12.93;;;;;;;9.65;100.00;100767.34;5032638;28;20029;-73
2022/09/26 04:32:11;;;;;;;18.53;13.63;;;;;;;9.65;100.00;100770.00;5032556;28;20034;-73
2022/09/26 04:34:39;;;;;;;18.67;12.80;;;;;;;9.66;100.00;100766.34;5032075;28;20064;-76
2022/09/26 04:37:05;;;;;;;19.38;13.82;;;;;;;9.66;100.00;100766.34;5032381;28;20120;-77
2022/09/26 04:39:30;;;;;;;16.37;13.13;;;;;;;9.65;100.00;100767.34;5031805;28;20049;-77
2022/09/26 04:41:56;;;;;;;21.27;13.87;;;;;;;9.67;100.00;100771.50;5032433;28;20493;-76
2022/09/26 04:44:21;;;;;;;19.23;14.00;;;;;;;9.61;100.00;100772.97;5032329;28;20385;-75
2022/09/26 04:46:47;;;;;;;20.43;13.97;;;;;;;9.63;100.00;100778.13;5032118;28;20030;-76
2022/09/26 04:49:12;;;;;;;20.83;14.33;;;;;;;9.64;100.00;100777.13;5031859;28;20037;-74
2022/09/26 04:51:38;;;;;;;21.47;15.37;;;;;;;9.68;100.00;100778.50;5014135;28;20037;-75
2022/09/26 04:54:04;;;;;;;22.53;15.53;;;;;;;9.73;100.00;100780.69;5032008;28;20485;-75
2022/09/26 04:56:29;;;;;;;22.00;14.20;;;;;;;9.75;100.00;100782.19;5032105;28;20037;-75
2022/09/26 04:58:57;;;;;;;18.17;14.53;;;;;;;9.72;100.00;100787.00;5032039;28;20481;-74
2022/09/26 05:01:25;;;;;;;16.80;14.27;;;;;;;9.70;100.00;100786.31;5031486;28;20429;-75
2022/09/26 05:03:54;;;;;;;17.95;13.23;;;;;;;9.63;100.00;100783.44;5031722;28;20034;-74
2022/09/26 05:06:19;;;;;;;19.37;13.50;;;;;;;9.61;100.00;100788.91;5032105;28;20099;-76
2022/09/26 05:08:45;;;;;;;21.80;14.63;;;;;;;9.61;100.00;100788.09;5031702;28;20033;-75
2022/09/26 05:11:11;;;;;;;20.87;16.03;;;;;;;9.58;100.00;100794.56;5031999;28;20124;-75
2022/09/26 05:13:37;;;;;;;22.47;16.63;;;;;;;9.61;100.00;100791.59;5013947;28;20033;-75
2022/09/26 05:16:05;;;;;;;23.33;16.30;;;;;;;9.62;100.00;100795.06;5031746;28;20075;-74
2022/09/26 05:18:32;;;;;;;20.45;15.48;;;;;;;9.65;100.00;100796.59;5031956;28;20485;-76
2022/09/26 05:21:07;;;;;;;20.07;15.10;;;;;;;9.62;100.00;100784.44;5031473;28;20087;-76
2022/09/26 05:26:37;;;;;;;26.13;17.00;;;;;;;9.88;100.00;100793.25;5031443;28;20464;-77
2022/09/26 05:29:05;;;;;;;22.93;16.23;;;;;;;9.80;100.00;100787.03;5013974;28;20026;-76
2022/09/26 05:31:38;;;;;;;20.80;15.80;;;;;;;9.84;100.00;100796.38;5040609;28;20040;-74
2022/09/26 05:34:05;;;;;;;22.67;17.33;;;;;;;9.80;100.00;100779.06;5047822;28;20400;-76
2022/09/26 05:36:30;;;;;;;24.10;16.90;;;;;;;9.89;100.00;100788.78;5032260;28;20140;-75
2022/09/26 05:41:53;;;;;;;21.13;16.03;;;;;;;10.12;100.00;100789.91;5033288;28;20064;-75
2022/09/26 05:44:19;;;;;;;22.33;16.67;;;;;;;10.23;100.00;100786.97;5032460;28;20095;-78
2022/09/26 05:46:46;;;;;;;20.47;15.90;;;;;;;10.29;100.00;100784.66;5032197;28;20029;-76
2022/09/26 05:49:13;;;;;;;24.77;16.93;;;;;;;10.17;100.00;100782.25;5031740;28;20073;-77
2022/09/26 05:51:40;;;;;;;23.93;18.73;;;;;;;10.09;100.00;100776.88;5034398;28;20045;-76
2022/09/26 05:54:06;;;;;;;23.33;18.23;;;;;;;10.22;100.00;100792.47;5036319;28;20102;-74
2022/09/26 05:56:36;;;;;;;26.10;18.90;;;;;;;10.36;100.00;100789.19;5036623;28;20066;-77
2022/09/26 05:59:04;;;;;;;28.57;19.10;;;;;;;10.35;100.00;100786.69;5041920;28;20075;-74
2022/09/26 06:01:51;;;;;;;28.50;20.33;;;;;;;10.39;100.00;100788.03;5057685;28;20033;-76
2022/09/26 06:04:17;;;;;;;32.65;23.23;;;;;;;10.19;100.00;100772.28;5067351;28;20055;-78
2022/09/26 06:06:47;;;;;;;30.50;20.90;;;;;;;10.19;100.00;100788.25;5077563;28;20496;-79
2022/09/26 06:09:16;;;;;;;33.03;22.47;;;;;;;10.20;100.00;100784.63;5076340;28;20402;-73
2022/09/26 06:11:44;;;;;;;31.80;20.38;;;;;;;10.22;100.00;100779.97;5058189;28;20044;-76
2022/09/26 06:14:09;;;;;;;36.30;22.77;;;;;;;10.29;100.00;100776.69;5076452;28;20085;-73
2022/09/26 06:16:35;;;;;;;28.53;20.63;;;;;;;10.27;100.00;100790.16;5060162;28;20032;-74
2022/09/26 06:19:01;;;;;;;29.57;22.03;;;;;;;10.17;100.00;100784.94;5074981;28;20032;-71
2022/09/26 06:21:30;;;;;;;30.93;20.93;;;;;;;10.16;100.00;100793.06;5057027;28;20408;-74
2022/09/26 06:23:55;;;;;;;27.13;20.47;;;;;;;10.15;100.00;100792.25;5074863;28;20036;-71
2022/09/26 06:26:23;;;;;;;28.47;21.00;;;;;;;10.32;100.00;100802.97;5075521;28;20132;-74
2022/09/26 06:29:01;;;;;;;34.53;20.63;;;;;;;10.30;100.00;100783.66;5064568;28;20033;-74
2022/09/26 06:31:27;;;;;;;29.23;20.70;;;;;;;10.50;99.70;100793.06;5077755;28;20047;-77
2022/09/26 06:33:54;;;;;;;27.97;19.40;;;;;;;10.61;99.14;100794.59;5096538;28;20036;-76
2022/09/26 06:36:22;;;;;;;32.10;22.40;;;;;;;10.60;98.45;100804.41;5097409;28;20074;-73
2022/09/26 06:38:48;;;;;;;32.50;20.80;;;;;;;10.50;98.90;100793.06;5094678;28;20041;-76
2022/09/26 06:41:16;;;;;;;31.83;20.80;;;;;;;10.37;99.45;100790.00;5077057;28;20385;-75
2022/09/26 06:43:44;;;;;;;34.70;23.25;;;;;;;10.37;99.18;100800.66;5076051;28;20040;-75
2022/09/26 06:46:11;;;;;;;31.87;21.53;;;;;;;10.45;99.93;100808.69;5076102;28;20248;-76
2022/09/26 06:48:37;;;;;;;41.57;21.50;;;;;;;10.51;99.93;100813.38;5075416;28;20040;-76
2022/09/26 06:51:02;;;;;;;35.60;21.93;;;;;;;10.68;99.72;100803.59;5074660;28;20621;-74
2022/09/26 06:53:29;;;;;;;33.10;23.37;;;;;;;10.83;98.93;100813.47;5074436;28;20173;-76
2022/09/26 06:55:56;;;;;;;32.40;22.03;;;;;;;10.78;97.65;100802.47;5074359;28;20507;-77
2022/09/26 06:58:24;;;;;;;30.03;20.80;;;;;;;10.90;98.31;100816.31;5073371;28;20407;-78
2022/09/26 07:00:50;;;;;;;29.87;21.67;;;;;;;10.94;97.68;100814.16;5074112;28;20093;-75
2022/09/26 07:03:16;;;;;;;37.03;23.60;;;;;;;10.94;97.40;100814.16;5073240;28;20409;-75
2022/09/26 07:05:44;;;;;;;32.30;20.87;;;;;;;11.03;97.19;100818.53;5074062;28;20032;-77
2022/09/26 07:08:09;;;;;;;29.88;22.00;;;;;;;11.10;96.92;100819.53;5054247;28;20136;-75
2022/09/26 07:10:36;;;;;;;31.37;22.23;;;;;;;11.02;96.13;100819.53;5053958;28;20468;-78
2022/09/26 07:13:04;;;;;;;29.73;21.13;;;;;;;10.92;96.25;100821.47;5053982;28;20128;-75
2022/09/26 07:15:32;;;;;;;31.55;21.00;;;;;;;11.00;97.29;100824.19;5054125;28;20040;-75
2022/09/26 07:18:01;;;;;;;27.05;20.83;;;;;;;11.09;97.07;100820.53;5053488;28;20129;-75
2022/09/26 07:20:33;;;;;;;31.70;22.60;;;;;;;11.16;96.90;100818.88;5053821;28;20044;-77
2022/09/26 07:23:02;;;;;;;28.03;19.93;;;;;;;11.17;96.07;100824.03;5053767;28;20040;-77
2022/09/26 07:25:30;;;;;;;28.93;21.43;;;;;;;11.30;96.06;100820.88;5053812;28;20032;-76
2022/09/26 07:27:56;;;;;;;28.77;21.65;;;;;;;11.39;95.07;100825.22;5053427;28;20045;-76
2022/09/26 07:30:22;;;;;;;31.17;20.73;;;;;;;11.52;94.96;100823.88;5052341;28;20041;-80
2022/09/26 07:32:50;;;;;;;31.80;22.37;;;;;;;11.59;94.45;100824.91;5053515;28;20033;-77
2022/09/26 07:35:16;;;;;;;36.38;22.00;;;;;;;11.57;93.78;100829.56;5053479;28;20041;-77
2022/09/26 07:37:43;;;;;;;31.53;20.80;;;;;;;11.55;93.94;100834.19;5052048;28;20040;-76
2022/09/26 07:40:10;;;;;;;36.80;22.23;;;;;;;11.55;93.74;100832.38;5053750;28;20447;-74
2022/09/26 07:42:37;;;;;;;33.30;23.00;;;;;;;11.53;94.11;100841.53;5054442;28;20434;-75
2022/09/26 07:45:04;;;;;;;32.87;23.40;;;;;;;11.51;94.49;100838.22;5053488;28;20060;-73
2022/09/26 07:50:18;;;;;;;33.25;22.17;;;;;;;11.54;93.74;100832.53;5053244;28;20048;-77
2022/09/26 07:52:46;;;;;;;33.53;22.57;;;;;;;11.56;92.59;100831.38;5053462;28;20103;-73
2022/09/26 07:55:20;;;;;;;32.22;22.60;;;;;;;11.66;92.96;100831.22;5053481;28;20065;-76
2022/09/26 07:57:56;;;;;;;31.83;22.60;;;;;;;11.75;92.29;100843.53;5052978;28;20071;-75
2022/09/26 08:00:25;;;;;;;29.50;21.43;;;;;;;11.81;91.59;100839.38;5041648;28;20061;-75
2022/09/26 08:02:51;;;;;;;30.15;21.73;;;;;;;11.86;91.26;100845.06;5026976;28;20036;-74
2022/09/26 08:05:20;;;;;;;38.03;22.03;;;;;;;11.88;91.79;100843.06;5026083;28;20041;-75
2022/09/26 08:07:47;;;;;;;30.33;20.90;;;;;;;11.90;91.23;100846.41;5042848;28;20045;-75
2022/09/26 08:10:22;;;;;;;29.70;20.43;;;;;;;12.01;91.78;100846.88;5044191;28;20096;-74
2022/09/26 08:12:48;;;;;;;34.87;23.60;;;;;;;12.04;91.07;100851.88;5042863;28;20037;-79
2022/09/26 08:15:14;;;;;;;32.30;21.60;;;;;;;12.03;90.77;100842.19;5042835;28;20033;-76
2022/09/26 08:17:40;;;;;;;31.53;21.93;;;;;;;11.94;90.28;100845.91;5042663;28;20045;-76
2022/09/26 08:20:06;;;;;;;31.60;21.90;;;;;;;11.97;91.20;100850.88;5042190;28;20046;-76
2022/09/26 08:22:32;;;;;;;33.90;22.73;;;;;;;11.90;90.08;100854.41;5044042;28;20037;-76
2022/09/26 08:24:57;;;;;;;34.23;22.57;;;;;;;11.88;91.74;100851.09;5040861;28;20060;-79
2022/09/26 08:27:23;;;;;;;34.50;24.00;;;;;;;11.84;91.87;100839.88;5040656;28;20029;-74
2022/09/26 08:29:49;;;;;;;34.63;21.63;;;;;;;11.98;91.43;100846.38;5042357;28;20042;-77
2022/09/26 08:32:17;;;;;;;30.93;21.73;;;;;;;12.08;90.79;100853.19;5040546;28;20037;-76
2022/09/26 08:34:43;;;;;;;26.33;21.40;;;;;;;12.03;90.97;100849.38;5024455;28;20029;-76
2022/09/26 08:37:08;;;;;;;33.87;21.33;;;;;;;11.94;90.04;100850.41;5038180;28;20037;-77
2022/09/26 08:39:34;;;;;;;27.80;20.17;;;;;;;11.98;90.69;100846.38;5040136;28;20051;-74
2022/09/26 08:42:27;;;;;;;32.13;22.80;;;;;;;12.14;91.50;100856.19;5040659;28;20040;-78
2022/09/26 08:48:33;;;;;;;32.07;19.77;;;;;;;12.73;89.04;100848.66;5043940;28;20044;-75
2022/09/26 08:51:11;;;;;;;32.47;21.10;;;;;;;12.74;87.60;100851.16;5017542;28;20099;-75
2022/09/26 08:53:52;;;;;;;27.90;19.88;;;;;;;12.80;88.95;100841.59;5043102;28;20037;-75
2022/09/26 08:56:23;;;;;;;20.07;15.53;;;;;;;12.90;86.80;100852.91;5046663;28;20040;-79
2022/09/26 08:58:53;;;;;;;19.83;14.40;;;;;;;13.04;85.75;100844.13;5046510;28;20554;-74
2022/09/26 09:01:30;;;;;;;32.20;19.40;;;;;;;13.01;84.56;100855.19;5042696;28;20056;-75
2022/09/26 09:04:13;;;;;;;29.50;17.50;;;;;;;12.69;85.21;100840.97;5042383;28;20033;-75
2022/09/26 09:06:39;;;;;;;27.83;17.97;;;;;;;12.54;87.13;100831.19;5022244;28;20037;-76
2022/09/26 09:09:05;;;;;;;30.53;18.37;;;;;;;12.75;86.40;100860.00;5029120;28;20489;-75
2022/09/26 09:12:10;;;;;;;27.57;17.57;;;;;;;12.73;85.60;100859.34;5045511;28;20045;-74
2022/09/26 09:15:06;;;;;;;24.17;17.47;;;;;;;12.58;86.17;100870.75;5038460;28;20463;-74
2022/09/26 09:17:37;;;;;;;25.93;18.30;;;;;;;12.58;86.33;100862.72;5041912;28;20037;-78
2022/09/26 09:20:19;;;;;;;26.63;17.57;;;;;;;12.63;86.60;100865.72;5045805;28;20052;-77
2022/09/26 09:23:09;;;;;;;27.77;15.17;;;;;;;12.75;86.63;100860.84;5043351;28;20033;-77
2022/09/26 09:25:48;;;;;;;25.90;17.23;;;;;;;12.82;86.83;100860.97;5038768;28;20119;-79
2022/09/26 09:28:33;;;;;;;32.03;19.63;;;;;;;12.83;85.10;100862.63;5035947;28;20033;-77
2022/09/26 09:31:01;;;;;;;30.77;18.80;;;;;;;12.74;85.97;100861.84;5035697;28;20404;-77
2022/09/26 09:33:32;;;;;;;29.02;17.95;;;;;;;12.77;85.69;100858.00;5036500;28;20037;-82
2022/09/26 09:36:05;;;;;;;29.30;16.87;;;;;;;12.98;85.12;100860.88;5037772;28;20091;-79
2022/09/26 09:38:35;;;;;;;27.77;18.07;;;;;;;12.96;84.71;100842.31;5035747;28;20041;-75
2022/09/26 09:41:30;;;;;;;26.83;17.47;;;;;;;13.11;84.28;100866.47;5018615;28;20176;-81
2022/09/26 09:43:59;;;;;;;24.90;17.03;;;;;;;13.04;84.70;100854.84;5037001;28;20052;-82
2022/09/26 09:46:29;;;;;;;26.20;17.37;;;;;;;13.21;84.07;100861.75;5036293;28;20034;-77
2022/09/26 09:49:06;;;;;;;27.13;17.33;;;;;;;13.32;82.86;100864.03;5035505;28;20048;-77
2022/09/26 09:51:53;;;;;;;24.37;16.97;;;;;;;13.19;83.41;100870.97;5036209;28;20041;-78
2022/09/26 09:54:37;;;;;;;23.40;15.63;;;;;;;13.10;83.75;100866.66;5037396;28;20124;-80
2022/09/26 09:57:40;;;;;;;25.23;16.37;;;;;;;13.04;83.76;100865.53;5036176;28;20535;-76
2022/09/26 10:00:16;;;;;;;22.33;16.60;;;;;;;13.08;84.13;100864.16;5000748;28;20062;-74
2022/09/26 10:03:13;;;;;;;24.40;15.33;;;;;;;13.08;83.41;100868.69;5000350;28;20046;-80
2022/09/26 10:05:44;;;;;;;29.23;15.90;;;;;;;13.04;84.46;100860.19;5023131;28;20041;-79
2022/09/26 10:08:16;;;;;;;31.63;16.90;;;;;;;13.11;83.40;100862.97;5005838;28;20038;-73
2022/09/26 10:11:00;;;;;;;21.93;14.60;;;;;;;13.14;83.58;100873.31;5028215;28;20078;-76
2022/09/26 10:13:26;;;;;;;24.53;14.80;;;;;;;12.91;81.95;100862.56;5033803;28;20501;-75
2022/09/26 10:16:00;;;;;;;25.17;15.37;;;;;;;12.66;84.32;100849.31;5017291;28;20041;-75
2022/09/26 10:18:26;;;;;;;23.97;14.33;;;;;;;12.76;84.83;100864.34;5011691;28;20046;-75
2022/09/26 10:21:15;;;;;;;24.50;15.00;;;;;;;12.76;84.96;100869.69;5014778;28;20037;-78
2022/09/26 10:23:45;;;;;;;38.97;18.63;;;;;;;12.75;86.85;100871.53;5015749;28;20034;-74
2022/09/26 10:26:15;;;;;;;37.20;22.10;;;;;;;12.71;87.84;100865.66;5014765;28;20363;-75
2022/09/26 10:28:47;;;;;;;31.33;22.43;;;;;;;12.73;87.48;100872.72;5015763;28;20132;-76
2022/09/26 10:31:35;;;;;;;38.50;23.83;;;;;;;12.76;88.36;100872.34;5016460;28;20038;-75
2022/09/26 10:34:26;;;;;;;29.10;19.27;;;;;;;12.81;87.67;100870.00;5015655;28;20080;-78
2022/09/26 10:36:52;;;;;;;32.90;21.60;;;;;;;12.77;86.37;100864.16;5010137;28;20034;-80
2022/09/26 10:42:21;;;;;;;28.83;21.60;;;;;;;12.90;86.79;100879.63;5015918;28;20038;-80
2022/09/26 10:44:57;;;;;;;27.03;18.43;;;;;;;12.92;86.07;100872.25;5030129;28;20042;-76
2022/09/26 10:47:25;;;;;;;29.43;19.50;;;;;;;12.93;85.51;100873.94;4996342;28;20050;-79
2022/09/26 10:50:26;;;;;;;31.08;18.20;;;;;;;12.97;85.52;100860.03;5012859;28;20046;-78
2022/09/26 10:56:46;;;;;;;28.08;18.48;;;;;;;12.93;84.85;100848.03;5007135;28;20064;-77
2022/09/26 10:59:14;;;;;;;26.33;18.23;;;;;;;13.22;84.74;100876.78;5028588;28;20118;-76
2022/09/26 11:01:44;;;;;;;28.48;20.02;;;;;;;13.33;85.15;100875.56;5055143;28;20492;-77
2022/09/26 11:07:29;;;;;;;21.87;16.37;;;;;;;13.51;81.99;100869.91;5052310;28;20028;-76
2022/09/26 11:10:00;;;;;;;;;;;;;;;13.76;83.55;100889.28;5054695;28;20033;-77
2022/09/26 11:12:28;;;;;;;23.60;15.33;;;;;;;13.78;81.05;100885.41;5032714;28;20019;-76
2022/09/26 11:14:58;;;;;;;22.00;16.52;;;;;;;13.82;82.03;100885.88;5033985;28;20107;-72
2022/09/26 11:17:46;;;;;;;20.63;14.43;;;;;;;13.77;80.83;100889.09;5033955;28;20037;-75
2022/09/26 11:20:37;;;;;;;31.38;17.10;;;;;;;13.73;80.18;100893.16;5033873;28;20034;-74
2022/09/26 11:23:18;;;;;;;20.33;13.17;;;;;;;13.59;79.51;100888.59;5033734;28;20040;-73
2022/09/26 11:26:10;;;;;;;20.73;12.97;;;;;;;13.63;79.63;100887.22;5033751;28;20037;-74
2022/09/26 11:28:39;;;;;;;21.33;13.00;;;;;;;13.69;80.93;100894.53;5025503;28;20123;-75
2022/09/26 11:31:15;;;;;;;21.07;15.17;;;;;;;13.61;82.38;100881.22;5032297;28;20064;-74
2022/09/26 11:33:43;;;;;;;21.50;15.20;;;;;;;13.55;82.47;100876.56;5033324;28;20052;-75
2022/09/26 11:36:45;;;;;;;22.45;13.68;;;;;;;13.55;82.12;100882.75;5029929;28;20117;-78
2022/09/26 11:39:13;;;;;;;23.13;13.37;;;;;;;13.49;81.95;100896.00;5053723;28;20137;-79
2022/09/26 11:42:20;;;;;;;20.67;13.73;;;;;;;13.49;82.00;100882.63;5054312;28;20102;-78
2022/09/26 11:44:58;;;;;;;18.03;13.63;;;;;;;13.31;81.39;100845.50;5016002;28;20034;-79
2022/09/26 11:48:04;;;;;;;24.93;15.63;;;;;;;13.62;81.35;100883.72;5046324;28;20049;-74
2022/09/26 11:50:42;;;;;;;23.63;16.53;;;;;;;13.61;80.23;100884.72;5035484;28;20108;-75
2022/09/26 11:53:29;;;;;;;20.98;14.20;;;;;;;13.56;81.81;100881.72;5034427;28;20041;-79
2022/09/26 11:56:23;;;;;;;25.30;16.97;;;;;;;13.54;83.25;100877.56;5033200;28;20041;-76
2022/09/26 11:59:12;;;;;;;30.07;17.47;;;;;;;13.51;82.12;100877.94;5037785;28;20084;-81